Time;durP1;ratioP1;P1;durP2;ratioP2;P2;SDS_P1;SDS_P2;PMS_P1;PMS_P2;Temp;Humidity;BMP_temperature;BMP_pressure;BME280_temperature;BME280_humidity;BME280_pressure;Samples;Min_cycle;Max_cycle;Signal;HPM_P1;HPM_P2
2022/06/22 00:02:26;;;;;;;10.40;4.13;;;25.80;47.30;;;;;;7380298;19;19931;-86
2022/06/22 00:04:57;;;;;;;9.45;3.92;;;25.60;47.10;;;;;;7399763;19;20497;-86
2022/06/22 00:07:29;;;;;;;5.90;3.30;;;25.60;47.60;;;;;;7378287;19;20224;-86
2022/06/22 00:10:01;;;;;;;9.00;3.42;;;25.60;47.80;;;;;;7384483;19;20098;-86
2022/06/22 00:12:33;;;;;;;8.13;3.60;;;25.60;47.60;;;;;;7390284;19;20039;-87
2022/06/22 00:15:04;;;;;;;7.22;3.45;;;25.50;47.70;;;;;;7399752;19;20006;-87
2022/06/22 00:17:40;;;;;;;9.50;3.53;;;25.50;47.70;;;;;;7394631;19;20010;-87
2022/06/22 00:20:14;;;;;;;7.40;3.70;;;25.40;47.60;;;;;;7404271;19;20014;-87
2022/06/22 00:22:50;;;;;;;11.73;3.95;;;25.30;47.70;;;;;;7376201;19;20498;-86
2022/06/22 00:25:24;;;;;;;12.55;4.00;;;25.30;47.80;;;;;;7376351;19;20019;-86
2022/06/22 00:27:53;;;;;;;11.55;4.28;;;25.30;47.90;;;;;;7378611;19;20059;-87
2022/06/22 00:30:28;;;;;;;11.23;3.70;;;25.20;47.60;;;;;;7375320;19;20435;-86
2022/06/22 00:33:17;;;;;;;7.97;4.35;;;25.20;47.80;;;;;;7376496;19;20028;-87
2022/06/22 00:35:58;;;;;;;8.50;3.83;;;25.20;48.00;;;;;;7377954;19;20014;-87
2022/06/22 00:38:32;;;;;;;9.18;4.45;;;25.20;48.00;;;;;;7377864;19;20459;-86
2022/06/22 00:41:05;;;;;;;11.85;4.57;;;25.30;47.60;;;;;;7398251;19;20018;-86
2022/06/22 00:43:37;;;;;;;8.07;4.50;;;25.30;47.60;;;;;;7375054;19;20410;-86
2022/06/22 00:46:16;;;;;;;11.88;4.57;;;25.20;47.80;;;;;;7375964;19;20085;-86
2022/06/22 00:48:50;;;;;;;8.13;4.50;;;25.00;47.70;;;;;;7375625;19;20048;-86
2022/06/22 00:51:23;;;;;;;11.70;4.80;;;25.00;48.00;;;;;;7376704;19;20015;-87
2022/06/22 00:53:58;;;;;;;10.02;4.50;;;25.00;48.30;;;;;;7377103;19;20035;-86
2022/06/22 00:56:45;;;;;;;9.82;4.65;;;25.00;48.10;;;;;;7375822;19;20453;-86
2022/06/22 00:59:24;;;;;;;12.85;4.88;;;24.90;48.20;;;;;;7408066;19;20011;-87
2022/06/22 01:01:57;;;;;;;9.65;4.35;;;25.00;48.50;;;;;;7404832;19;20054;-86
2022/06/22 01:04:38;;;;;;;13.93;4.45;;;25.00;48.50;;;;;;7407821;19;20013;-86
2022/06/22 01:07:16;;;;;;;9.57;4.72;;;25.00;48.40;;;;;;7411276;19;20014;-86
2022/06/22 01:09:52;;;;;;;15.07;4.85;;;25.10;48.50;;;;;;7396425;19;20014;-86
2022/06/22 01:12:26;;;;;;;13.40;4.65;;;25.10;48.30;;;;;;7381567;19;20035;-86
2022/06/22 01:15:08;;;;;;;10.90;4.35;;;25.10;48.50;;;;;;7378081;19;20011;-86
2022/06/22 01:17:41;;;;;;;13.25;4.55;;;25.00;48.60;;;;;;7373697;19;21055;-85
2022/06/22 01:20:17;;;;;;;13.90;4.90;;;25.10;48.70;;;;;;7394931;19;20098;-86
2022/06/22 01:23:07;;;;;;;11.70;4.38;;;25.10;48.70;;;;;;7375211;19;20018;-86
2022/06/22 01:25:52;;;;;;;13.90;5.68;;;25.00;48.90;;;;;;7373743;19;20864;-85
2022/06/22 01:28:24;;;;;;;9.27;4.20;;;25.10;49.00;;;;;;7373660;19;20018;-86
2022/06/22 01:30:55;;;;;;;12.90;4.63;;;25.10;49.10;;;;;;7375257;19;20718;-85
2022/06/22 01:33:33;;;;;;;8.93;4.22;;;25.10;49.50;;;;;;7373735;19;20014;-86
2022/06/22 01:36:06;;;;;;;9.43;4.60;;;25.10;49.60;;;;;;7374610;19;20025;-86
2022/06/22 01:38:39;;;;;;;9.75;4.18;;;25.10;49.70;;;;;;7372668;19;20018;-85
2022/06/22 01:41:19;;;;;;;9.15;4.57;;;25.10;49.60;;;;;;7396432;19;20085;-86
2022/06/22 01:43:57;;;;;;;10.52;4.50;;;25.10;49.60;;;;;;7373054;19;20018;-86
2022/06/22 01:46:28;;;;;;;21.05;4.38;;;25.10;49.70;;;;;;7373469;19;20017;-86
2022/06/22 01:49:01;;;;;;;12.63;4.53;;;25.10;50.50;;;;;;7374698;19;20007;-85
2022/06/22 01:51:35;;;;;;;12.80;4.85;;;25.10;50.00;;;;;;7371702;19;20381;-86
2022/06/22 01:54:08;;;;;;;10.57;5.00;;;25.10;50.40;;;;;;7375660;19;20416;-85
2022/06/22 01:56:42;;;;;;;13.52;4.78;;;25.00;50.20;;;;;;7375085;19;20040;-86
2022/06/22 01:59:23;;;;;;;10.63;4.80;;;25.00;50.20;;;;;;7394750;19;20078;-86
2022/06/22 02:02:00;;;;;;;9.73;4.60;;;24.90;50.00;;;;;;7373676;19;20117;-85
2022/06/22 02:04:36;;;;;;;11.88;4.78;;;24.90;50.70;;;;;;7373137;19;20014;-82
2022/06/22 02:10:01;;;;;;;15.88;4.93;;;24.80;50.40;;;;;;7376962;19;20030;-85
2022/06/22 02:12:38;;;;;;;11.75;4.20;;;24.80;50.40;;;;;;7375418;19;20467;-84
2022/06/22 02:15:20;;;;;;;9.48;4.68;;;24.80;50.60;;;;;;7374439;19;20086;-85
2022/06/22 02:17:49;;;;;;;13.93;4.53;;;24.80;50.50;;;;;;7374153;19;20098;-85
2022/06/22 02:20:28;;;;;;;10.10;4.30;;;24.80;50.30;;;;;;7381573;19;20018;-84
2022/06/22 02:23:04;;;;;;;8.43;4.63;;;24.70;50.20;;;;;;7400370;19;20093;-85
2022/06/22 02:25:36;;;;;;;13.23;5.00;;;24.70;50.40;;;;;;7377163;19;20066;-84
2022/06/22 02:28:05;;;;;;;14.02;5.13;;;24.60;50.90;;;;;;7402345;19;20018;-85
2022/06/22 02:30:37;;;;;;;8.35;4.68;;;24.60;50.90;;;;;;7406750;19;20011;-85
2022/06/22 02:33:08;;;;;;;16.95;4.65;;;24.60;50.80;;;;;;7401976;19;20014;-84
2022/06/22 02:35:39;;;;;;;13.02;4.97;;;24.60;50.70;;;;;;7392071;19;20043;-85
2022/06/22 02:38:09;;;;;;;;;;;24.60;51.10;;;;;;7401175;19;20018;-85
2022/06/22 02:46:15;;;;;;;9.38;5.00;;;24.50;51.10;;;;;;7372855;19;20011;-84
2022/06/22 02:48:46;;;;;;;10.52;4.93;;;24.50;51.10;;;;;;7372591;19;20018;-83
2022/06/22 02:51:23;;;;;;;9.93;5.07;;;24.40;51.40;;;;;;7372966;19;20011;-84
2022/06/22 02:53:53;;;;;;;12.80;5.10;;;24.40;51.40;;;;;;7372778;19;20025;-83
2022/06/22 02:56:26;;;;;;;11.07;5.18;;;24.40;51.30;;;;;;7371762;19;20014;-83
2022/06/22 02:58:54;;;;;;;12.35;5.15;;;24.40;50.90;;;;;;7393618;19;20075;-83
2022/06/22 03:01:32;;;;;;;9.45;4.88;;;24.40;51.10;;;;;;7370081;19;20054;-84
2022/06/22 03:04:05;;;;;;;10.63;5.43;;;24.30;51.10;;;;;;7373137;19;20019;-84
2022/06/22 03:06:36;;;;;;;12.32;5.35;;;24.30;51.00;;;;;;7379499;19;20022;-84
2022/06/22 03:09:07;;;;;;;8.73;4.82;;;24.20;51.00;;;;;;7377785;19;20022;-84
2022/06/22 03:11:38;;;;;;;;;;;24.20;51.20;;;;;;7381590;19;20492;-84
2022/06/22 03:14:20;;;;;;;10.13;5.23;;;24.20;51.40;;;;;;7398768;19;20410;-83
2022/06/22 03:16:56;;;;;;;9.93;5.35;;;24.20;51.70;;;;;;7380065;19;20007;-83
2022/06/22 03:19:29;;;;;;;9.68;4.55;;;24.10;51.50;;;;;;7377270;19;20018;-83
2022/06/22 03:21:59;;;;;;;9.45;4.78;;;24.20;51.60;;;;;;7378749;19;20014;-84
2022/06/22 03:24:41;;;;;;;13.85;5.63;;;24.20;51.90;;;;;;7378780;19;20074;-83
2022/06/22 03:27:17;;;;;;;9.30;5.10;;;24.20;52.20;;;;;;7380245;19;20457;-83
2022/06/22 03:29:51;;;;;;;11.23;5.00;;;24.20;52.40;;;;;;7381174;19;20020;-83
2022/06/22 03:32:27;;;;;;;10.50;5.43;;;24.20;52.00;;;;;;7377556;19;20118;-84
2022/06/22 03:35:03;;;;;;;9.70;5.43;;;24.10;51.50;;;;;;7400994;19;20423;-83
2022/06/22 03:37:37;;;;;;;10.23;5.30;;;24.10;51.50;;;;;;7377711;19;20082;-84
2022/06/22 03:40:13;;;;;;;11.75;5.53;;;24.10;51.70;;;;;;7379355;19;20047;-83
2022/06/22 03:42:47;;;;;;;10.40;5.20;;;24.10;52.30;;;;;;7377822;19;20011;-83
2022/06/22 03:45:20;;;;;;;12.77;6.00;;;24.10;51.80;;;;;;7379877;19;20026;-84
2022/06/22 03:47:58;;;;;;;8.98;5.18;;;24.10;51.90;;;;;;7378856;19;20082;-84
2022/06/22 03:50:37;;;;;;;14.02;5.38;;;24.00;52.10;;;;;;7376785;19;20018;-84
2022/06/22 03:53:14;;;;;;;8.57;5.25;;;24.10;51.90;;;;;;7396089;19;20040;-84
2022/06/22 03:55:46;;;;;;;15.63;6.20;;;24.20;51.50;;;;;;7378060;19;20070;-84
2022/06/22 03:58:18;;;;;;;11.23;5.70;;;24.20;51.80;;;;;;7379245;19;20014;-84
2022/06/22 04:00:49;;;;;;;10.57;5.60;;;24.30;51.50;;;;;;7381279;19;20372;-84
2022/06/22 04:03:21;;;;;;;12.38;4.97;;;24.30;51.30;;;;;;7380439;19;20010;-84
2022/06/22 04:05:55;;;;;;;7.97;4.97;;;24.40;51.70;;;;;;7379585;19;20010;-82
2022/06/22 04:08:27;;;;;;;9.23;4.50;;;24.40;52.20;;;;;;7379342;19;20457;-82
2022/06/22 04:11:00;;;;;;;10.27;5.05;;;24.40;52.40;;;;;;7396561;19;20090;-82
2022/06/22 04:13:36;;;;;;;10.13;5.18;;;24.40;52.40;;;;;;7373153;19;20019;-79
2022/06/22 04:16:12;;;;;;;14.40;5.07;;;24.40;52.30;;;;;;7375457;19;20097;-79
2022/06/22 04:18:49;;;;;;;9.30;5.63;;;24.40;52.50;;;;;;7375235;19;20333;-79
2022/06/22 04:21:26;;;;;;;11.75;5.05;;;24.40;52.40;;;;;;7374374;19;20015;-84
2022/06/22 04:23:58;;;;;;;14.60;5.82;;;24.40;53.20;;;;;;7377223;19;20491;-83
2022/06/22 04:26:30;;;;;;;14.23;7.40;;;24.50;52.50;;;;;;7371851;19;20031;-82
2022/06/22 04:29:03;;;;;;;23.50;16.33;;;24.40;52.40;;;;;;7397552;19;20026;-83
2022/06/22 04:31:38;;;;;;;12.98;6.97;;;24.40;52.70;;;;;;7377172;19;20006;-85
2022/06/22 04:34:16;;;;;;;12.02;5.97;;;24.30;52.70;;;;;;7379311;19;20038;-88
2022/06/22 04:36:50;;;;;;;13.30;5.57;;;24.30;52.70;;;;;;7378179;19;20443;-84
2022/06/22 04:39:25;;;;;;;13.18;5.85;;;24.30;53.00;;;;;;7377884;19;20014;-85
2022/06/22 04:41:55;;;;;;;13.88;7.15;;;24.30;52.00;;;;;;7379287;19;20019;-81
2022/06/22 04:44:27;;;;;;;12.55;8.63;;;24.20;51.40;;;;;;7374733;19;20040;-84
2022/06/22 04:46:59;;;;;;;28.75;18.27;;;24.10;51.60;;;;;;7399615;19;20035;-84
2022/06/22 04:49:32;;;;;;;16.13;9.38;;;24.20;51.30;;;;;;7370814;19;20011;-80
2022/06/22 04:52:06;;;;;;;14.65;9.63;;;24.20;51.10;;;;;;7373020;19;20074;-78
2022/06/22 04:54:37;;;;;;;12.18;7.55;;;24.20;51.00;;;;;;7373254;19;20025;-77
2022/06/22 04:57:14;;;;;;;11.73;6.95;;;24.10;51.00;;;;;;7373652;19;20015;-79
2022/06/22 04:59:44;;;;;;;13.65;6.40;;;24.00;50.70;;;;;;7374684;19;20085;-78
2022/06/22 05:02:15;;;;;;;11.05;6.28;;;24.00;50.90;;;;;;7397303;19;20014;-82
2022/06/22 05:04:51;;;;;;;9.02;6.05;;;24.00;50.80;;;;;;7372895;19;20014;-82
2022/06/22 05:07:38;;;;;;;15.63;7.05;;;23.90;50.90;;;;;;7373518;19;20022;-82
2022/06/22 05:10:14;;;;;;;12.88;6.47;;;23.80;51.10;;;;;;7373995;19;20601;-82
2022/06/22 05:12:49;;;;;;;12.73;6.43;;;23.90;51.10;;;;;;7376276;19;20023;-83
2022/06/22 05:15:24;;;;;;;10.75;7.05;;;23.60;51.00;;;;;;7374282;19;20581;-83
2022/06/22 05:17:53;;;;;;;12.25;6.32;;;23.60;51.30;;;;;;7376165;19;20471;-82
2022/06/22 05:20:31;;;;;;;17.13;6.65;;;23.60;51.30;;;;;;7376460;19;20074;-83
2022/06/22 05:23:03;;;;;;;13.85;7.25;;;23.50;51.40;;;;;;7394500;19;20496;-82
2022/06/22 05:25:33;;;;;;;17.17;6.90;;;23.40;51.30;;;;;;7371563;19;20447;-82
2022/06/22 05:28:06;;;;;;;18.52;6.85;;;23.40;51.50;;;;;;7376939;19;20498;-82
2022/06/22 05:30:39;;;;;;;12.13;6.43;;;23.30;51.80;;;;;;7378118;19;20068;-83
2022/06/22 05:33:12;;;;;;;8.02;6.10;;;23.40;51.70;;;;;;7380334;19;20010;-81
2022/06/22 05:35:49;;;;;;;11.50;6.10;;;23.20;51.90;;;;;;7379915;19;20752;-81
2022/06/22 05:38:19;;;;;;;8.68;6.57;;;23.40;52.20;;;;;;7394177;19;20027;-81
2022/06/22 05:40:53;;;;;;;13.80;6.60;;;23.50;52.00;;;;;;7399282;19;20018;-81
2022/06/22 05:43:22;;;;;;;15.82;7.20;;;23.60;51.50;;;;;;7377129;19;20474;-81
2022/06/22 05:45:57;;;;;;;15.02;6.63;;;23.60;51.30;;;;;;7374621;19;20018;-81
2022/06/22 05:48:28;;;;;;;14.05;6.07;;;23.60;51.20;;;;;;7373787;19;20011;-81
2022/06/22 05:51:04;;;;;;;12.88;7.10;;;23.70;51.30;;;;;;7373982;19;20014;-81
2022/06/22 05:53:41;;;;;;;13.85;7.68;;;23.70;51.10;;;;;;7372154;19;20310;-82
2022/06/22 05:56:18;;;;;;;14.43;7.85;;;23.80;50.90;;;;;;7395010;19;20082;-81
2022/06/22 05:58:55;;;;;;;15.23;6.95;;;23.60;50.80;;;;;;7373933;19;20021;-81
2022/06/22 06:01:29;;;;;;;16.85;7.30;;;23.60;51.10;;;;;;7371655;19;20022;-81
2022/06/22 06:04:07;;;;;;;11.32;6.68;;;23.30;51.50;;;;;;7369196;19;20021;-81
2022/06/22 06:06:43;;;;;;;13.40;7.25;;;23.40;51.80;;;;;;7371701;19;20006;-81
2022/06/22 06:09:19;;;;;;;14.40;7.80;;;23.40;51.50;;;;;;7373077;19;20011;-81
2022/06/22 06:11:51;;;;;;;16.40;8.02;;;23.50;51.50;;;;;;7372361;19;20114;-82
2022/06/22 06:14:26;;;;;;;20.45;8.15;;;23.50;51.40;;;;;;7373252;19;20014;-82
2022/06/22 06:16:58;;;;;;;12.98;8.25;;;23.50;51.40;;;;;;7391955;19;20018;-82
2022/06/22 06:19:32;;;;;;;16.75;7.32;;;23.30;51.30;;;;;;7371450;19;20066;-82
2022/06/22 06:22:06;;;;;;;14.30;7.40;;;23.30;51.60;;;;;;7371316;19;20297;-82
2022/06/22 06:24:38;;;;;;;14.30;7.47;;;23.30;51.80;;;;;;7371998;19;20024;-83
2022/06/22 06:30:00;;;;;;;16.48;8.05;;;23.30;51.90;;;;;;7374459;19;20433;-82
2022/06/22 06:32:37;;;;;;;11.38;7.05;;;23.20;51.80;;;;;;7373372;19;20022;-82
2022/06/22 06:35:15;;;;;;;19.30;8.82;;;23.30;52.50;;;;;;7392247;19;20116;-81
2022/06/22 06:38:03;;;;;;;15.85;7.75;;;23.20;52.00;;;;;;7374975;19;20023;-83
2022/06/22 06:40:41;;;;;;;13.55;7.93;;;23.30;52.00;;;;;;7376045;19;20053;-82
2022/06/22 06:43:27;;;;;;;13.85;7.70;;;23.30;52.10;;;;;;7379167;19;20077;-81
2022/06/22 06:45:56;;;;;;;21.10;8.05;;;23.40;52.00;;;;;;7380393;19;20071;-78
2022/06/22 06:48:27;;;;;;;19.20;8.38;;;23.40;51.70;;;;;;7378833;19;20490;-79
2022/06/22 06:51:01;;;;;;;22.15;8.38;;;23.50;51.80;;;;;;7377424;19;20757;-81
2022/06/22 06:53:39;;;;;;;16.20;7.60;;;23.50;51.70;;;;;;7376382;19;20015;-80
2022/06/22 06:56:19;;;;;;;13.38;8.13;;;23.50;51.60;;;;;;7398618;19;20460;-79
2022/06/22 06:58:52;;;;;;;56.67;36.92;;;23.40;51.40;;;;;;7376021;19;20070;-81
2022/06/22 07:01:24;;;;;;;13.48;8.88;;;23.30;51.60;;;;;;7365120;19;20014;-80
2022/06/22 07:03:56;;;;;;;17.35;9.88;;;23.30;51.80;;;;;;7375155;19;20031;-79
2022/06/22 07:06:26;;;;;;;17.73;8.07;;;23.40;52.10;;;;;;7375226;19;20019;-82
2022/06/22 07:09:31;;;;;;;18.15;7.95;;;23.50;51.90;;;;;;7382312;19;20063;-81
2022/06/22 07:15:39;;;;;;;15.80;7.72;;;23.60;51.30;;;;;;7380002;19;20003;-80
2022/06/22 07:18:31;;;;;;;18.23;8.15;;;23.80;51.20;;;;;;7377313;19;20010;-79
2022/06/22 07:35:06;;;;;;;16.55;7.70;;;24.00;50.80;;;;;;7374557;19;20015;-80
2022/06/22 07:38:02;;;;;;;19.88;9.23;;;24.10;51.10;;;;;;7394654;19;20091;-79
2022/06/22 07:40:33;;;;;;;19.05;9.40;;;24.10;50.60;;;;;;7372157;19;20021;-80
2022/06/22 07:43:21;;;;;;;13.97;8.00;;;24.20;50.60;;;;;;7373699;19;20053;-80
2022/06/22 07:46:01;;;;;;;18.70;9.55;;;24.30;50.50;;;;;;7371298;19;20431;-82
2022/06/22 07:48:48;;;;;;;16.63;9.63;;;24.30;50.40;;;;;;7375152;19;20443;-80
2022/06/22 07:51:49;;;;;;;15.73;7.72;;;24.30;50.10;;;;;;7370486;19;20045;-80
2022/06/22 07:54:24;;;;;;;16.88;8.90;;;24.40;50.20;;;;;;7372133;19;20020;-80
2022/06/22 07:57:12;;;;;;;15.40;8.57;;;24.40;50.10;;;;;;7372438;19;20031;-81
2022/06/22 08:03:09;;;;;;;22.40;8.90;;;24.60;50.20;;;;;;7373217;19;20347;-81
2022/06/22 08:05:44;;;;;;;21.25;8.57;;;24.60;50.00;;;;;;7331305;19;20032;-79
2022/06/22 08:08:54;;;;;;;20.20;8.20;;;24.50;49.40;;;;;;7396929;19;20312;-81
2022/06/22 08:11:43;;;;;;;17.42;8.00;;;24.50;49.60;;;;;;7273625;19;2004207;-80
2022/06/22 08:14:36;;;;;;;19.33;7.53;;;24.50;49.70;;;;;;7396981;19;20018;-81
2022/06/22 08:17:36;;;;;;;18.15;8.57;;;24.50;49.60;;;;;;7373816;19;20066;-80
2022/06/22 08:20:11;;;;;;;28.27;8.90;;;24.30;49.70;;;;;;7374412;19;20060;-79
2022/06/22 08:22:45;;;;;;;15.07;8.48;;;24.40;49.90;;;;;;7375573;19;20082;-79
2022/06/22 08:25:28;;;;;;;17.90;8.15;;;24.30;49.90;;;;;;7375349;19;20011;-81
2022/06/22 08:28:13;;;;;;;22.10;8.13;;;24.40;50.30;;;;;;7372550;19;20023;-81
2022/06/22 08:30:43;;;;;;;15.85;8.10;;;24.50;50.30;;;;;;7375187;19;20661;-79
2022/06/22 08:33:18;;;;;;;16.33;7.60;;;24.60;50.00;;;;;;7375490;19;20031;-80
2022/06/22 08:36:20;;;;;;;23.27;7.82;;;24.60;49.80;;;;;;7373140;19;20007;-80
2022/06/22 08:38:57;;;;;;;21.17;7.70;;;24.70;49.80;;;;;;7373548;19;20022;-81
2022/06/22 08:41:52;;;;;;;16.00;7.13;;;24.70;49.90;;;;;;7375399;19;20027;-79
2022/06/22 08:44:41;;;;;;;14.60;7.07;;;24.70;49.80;;;;;;7375469;19;20103;-80
2022/06/22 08:47:39;;;;;;;22.45;7.80;;;24.80;50.30;;;;;;7395473;19;20026;-80
2022/06/22 08:50:38;;;;;;;19.13;8.88;;;24.80;49.90;;;;;;7376659;19;20045;-79
2022/06/22 08:53:25;;;;;;;16.67;8.00;;;24.80;49.60;;;;;;7375550;19;20021;-79
2022/06/22 09:09:34;;;;;;;19.80;9.43;;;24.60;50.20;;;;;;7244832;19;2004444;-80
2022/06/22 09:12:26;;;;;;;16.23;8.15;;;24.70;50.50;;;;;;7372417;19;20074;-81
2022/06/22 09:15:33;;;;;;;18.52;8.65;;;24.70;50.30;;;;;;7372832;19;20041;-78
2022/06/22 09:18:44;;;;;;;109.45;69.75;;;24.80;50.10;;;;;;7223409;19;20019;-79
2022/06/22 09:21:24;;;;;;;24.92;14.55;;;24.90;49.90;;;;;;7393276;19;20022;-78
2022/06/22 09:24:15;;;;;;;20.02;11.05;;;25.00;49.80;;;;;;7374113;19;20042;-78
2022/06/22 09:26:54;;;;;;;14.60;8.90;;;25.10;49.70;;;;;;7372596;19;20443;-78
2022/06/22 09:29:39;;;;;;;15.32;8.10;;;25.10;49.10;;;;;;7372239;19;20018;-77
2022/06/22 09:32:56;;;;;;;15.60;7.80;;;25.20;49.30;;;;;;7393023;19;20315;-79
2022/06/22 09:35:51;;;;;;;21.90;8.00;;;25.20;49.20;;;;;;7270801;19;2004245;-78
2022/06/22 09:38:44;;;;;;;18.83;7.47;;;25.30;48.90;;;;;;7377602;19;20018;-80
2022/06/22 09:41:25;;;;;;;12.50;7.38;;;25.30;49.00;;;;;;7394965;19;20491;-79
2022/06/22 09:44:09;;;;;;;;;;;25.40;49.30;;;;;;7372070;19;20014;-79
2022/06/22 09:47:09;;;;;;;16.38;7.32;;;25.50;49.70;;;;;;7371563;19;19943;-81
2022/06/22 09:50:13;;;;;;;15.80;6.88;;;25.50;49.80;;;;;;7370851;19;20035;-78
2022/06/22 09:53:09;;;;;;;16.77;7.32;;;25.60;50.00;;;;;;7370336;19;20011;-78
2022/06/22 09:59:04;;;;;;;18.15;8.32;;;25.80;49.50;;;;;;7368414;19;20021;-79
2022/06/22 10:01:46;;;;;;;20.75;8.05;;;25.90;49.20;;;;;;7367884;19;20022;-81
2022/06/22 10:04:57;;;;;;;12.45;7.43;;;26.10;49.30;;;;;;7368012;19;20026;-80
2022/06/22 10:07:38;;;;;;;13.90;6.80;;;26.10;49.40;;;;;;7367002;19;20085;-79
2022/06/22 10:10:20;;;;;;;12.48;7.75;;;26.20;49.50;;;;;;7370857;19;20006;-80
2022/06/22 10:13:19;;;;;;;13.05;7.20;;;26.20;49.10;;;;;;7365948;19;20397;-79
2022/06/22 10:16:11;;;;;;;21.60;6.97;;;26.30;49.30;;;;;;7367889;19;20805;-80
2022/06/22 10:18:58;;;;;;;13.93;7.18;;;26.30;49.20;;;;;;7369649;19;20029;-80
2022/06/22 10:21:40;;;;;;;16.65;6.88;;;26.40;49.30;;;;;;7364225;19;20050;-79
2022/06/22 10:24:53;;;;;;;12.50;6.43;;;26.40;49.20;;;;;;7368988;19;20014;-80
2022/06/22 10:28:01;;;;;;;13.13;6.28;;;26.50;49.40;;;;;;7373049;19;20062;-80
2022/06/22 10:31:06;;;;;;;15.07;7.57;;;26.60;49.60;;;;;;7370491;19;20071;-81
2022/06/22 10:34:11;;;;;;;13.68;6.68;;;26.70;49.20;;;;;;7367538;19;20022;-79
2022/06/22 10:37:20;;;;;;;12.80;7.13;;;26.80;49.30;;;;;;7368556;19;20028;-79
2022/06/22 10:40:04;;;;;;;18.35;8.18;;;27.00;49.00;;;;;;7366840;19;20425;-79
2022/06/22 10:45:45;;;;;;;23.70;8.93;;;27.30;48.40;;;;;;7370116;19;20011;-79
2022/06/22 10:48:40;;;;;;;16.35;9.60;;;27.40;48.80;;;;;;7371756;19;20031;-78
2022/06/22 10:51:19;;;;;;;15.57;9.32;;;27.40;49.20;;;;;;7370253;19;20086;-80
2022/06/22 10:54:17;;;;;;;23.70;10.07;;;27.40;48.30;;;;;;7369861;19;20011;-78
2022/06/22 10:57:16;;;;;;;24.08;7.35;;;27.50;48.60;;;;;;7370920;19;20050;-79
2022/06/22 11:00:05;;;;;;;14.90;6.18;;;27.60;49.70;;;;;;7366769;19;20018;-78
2022/06/22 11:03:09;;;;;;;9.93;5.82;;;27.70;49.60;;;;;;7369185;19;20018;-79
2022/06/22 11:06:05;;;;;;;12.90;6.05;;;27.90;49.20;;;;;;7368349;19;20352;-78
2022/06/22 11:09:04;;;;;;;14.40;7.85;;;28.00;49.30;;;;;;7367078;19;20029;-79
2022/06/22 11:11:47;;;;;;;14.77;5.97;;;28.00;49.30;;;;;;7366045;19;20086;-78
2022/06/22 11:14:40;;;;;;;14.38;6.22;;;28.00;49.60;;;;;;7391660;19;20090;-78
2022/06/22 11:17:32;;;;;;;12.43;5.68;;;28.10;49.80;;;;;;7368790;19;20172;-79
2022/06/22 11:20:32;;;;;;;15.32;5.57;;;28.10;49.30;;;;;;7367161;19;20011;-79
2022/06/22 11:23:06;;;;;;;11.90;7.53;;;28.20;49.00;;;;;;7368565;19;20342;-78
2022/06/22 11:32:09;;;;;;;12.75;5.90;;;28.10;49.20;;;;;;7374876;19;20019;-79
2022/06/22 11:34:56;;;;;;;8.45;4.95;;;28.00;49.50;;;;;;7373357;19;20021;-79
2022/06/22 11:37:38;;;;;;;13.98;5.32;;;27.90;49.60;;;;;;7373085;19;20014;-79
2022/06/22 11:40:29;;;;;;;10.18;5.15;;;27.90;49.90;;;;;;7373821;19;20590;-79
2022/06/22 11:43:16;;;;;;;10.40;5.32;;;27.90;50.20;;;;;;7372797;19;20011;-79
2022/06/22 11:45:58;;;;;;;10.45;5.30;;;27.80;50.60;;;;;;7372197;19;20022;-79
2022/06/22 11:48:54;;;;;;;8.18;5.07;;;27.80;50.50;;;;;;7373239;19;20022;-79
2022/06/22 11:51:42;;;;;;;6.93;4.70;;;27.70;50.80;;;;;;7371498;19;20011;-79
2022/06/22 11:54:40;;;;;;;19.25;4.85;;;27.70;51.10;;;;;;7372726;19;20022;-80
2022/06/22 12:11:26;;;;;;;12.80;4.90;;;27.70;51.40;;;;;;7376644;19;20019;-80
2022/06/22 12:20:09;;;;;;;5.05;3.80;;;27.80;51.60;;;;;;7321060;19;19918;-80
2022/06/22 12:22:58;;;;;;;6.15;3.70;;;27.90;51.10;;;;;;7395295;19;20015;-79
2022/06/22 12:26:13;;;;;;;9.82;3.67;;;27.90;50.90;;;;;;7372072;19;20078;-80
2022/06/22 12:29:16;;;;;;;7.20;3.88;;;28.00;51.10;;;;;;7372464;19;20447;-80
2022/06/22 12:42:07;;;;;;;6.50;3.85;;;28.30;50.90;;;;;;7320759;19;20093;-81
2022/06/22 12:45:49;;;;;;;9.23;4.18;;;28.30;51.60;;;;;;7337107;19;20014;-81
2022/06/22 12:51:52;;;;;;;11.27;3.97;;;28.40;50.60;;;;;;7371539;19;20014;-80
2022/06/22 12:55:10;;;;;;;8.25;4.72;;;28.50;50.60;;;;;;7370276;19;20592;-81
2022/06/22 12:58:21;;;;;;;152.93;114.32;;;28.50;50.60;;;;;;7327709;19;20019;-81
2022/06/22 13:36:43;;;;;;;7.90;4.22;;;29.20;50.20;;;;;;7391306;19;20003;-81
2022/06/22 13:39:33;;;;;;;8.77;4.80;;;29.10;50.50;;;;;;7315553;19;20036;-80
2022/06/22 14:17:04;;;;;;;5.88;4.30;;;29.50;51.20;;;;;;7403338;19;20070;-81
2022/06/22 14:19:50;;;;;;;9.75;4.45;;;29.70;50.40;;;;;;7379354;19;20015;-81
2022/06/22 14:29:52;;;;;;;8.93;4.20;;;30.20;49.60;;;;;;7266510;19;2004618;-81
2022/06/22 14:32:42;;;;;;;;;;;30.20;48.80;;;;;;7375776;19;20301;-81
2022/06/22 14:35:36;;;;;;;6.75;4.53;;;30.20;49.10;;;;;;7370105;19;19919;-81
2022/06/22 14:38:39;;;;;;;8.85;4.22;;;30.20;49.10;;;;;;7371014;19;20323;-82
2022/06/22 14:41:41;;;;;;;7.80;3.95;;;30.20;49.30;;;;;;7369820;19;20022;-81
2022/06/22 14:44:44;;;;;;;8.23;4.13;;;30.20;49.40;;;;;;7368562;19;20056;-81
2022/06/22 14:47:58;;;;;;;8.90;4.38;;;30.30;49.70;;;;;;7367786;19;20025;-81
2022/06/22 14:51:00;;;;;;;5.50;3.90;;;30.20;49.10;;;;;;7269811;19;2004687;-81
2022/06/22 14:53:48;;;;;;;5.25;3.50;;;30.30;48.40;;;;;;7371826;19;20021;-80
2022/06/22 15:00:08;;;;;;;5.32;2.83;;;30.30;48.00;;;;;;7375237;19;20011;-85
2022/06/22 15:02:45;;;;;;;7.25;3.08;;;30.40;47.20;;;;;;7380055;19;20022;-84
2022/06/22 15:05:20;;;;;;;88.30;66.15;;;30.50;47.30;;;;;;7399272;19;20011;-82
2022/06/22 15:08:05;;;;;;;13.60;3.83;;;30.60;46.80;;;;;;7376145;19;20490;-83
2022/06/22 15:10:43;;;;;;;6.03;3.63;;;30.60;46.80;;;;;;7379841;19;20028;-82
2022/06/22 15:13:18;;;;;;;7.85;3.38;;;30.70;46.70;;;;;;7379547;19;20031;-83
2022/06/22 15:15:52;;;;;;;6.28;3.47;;;30.80;46.40;;;;;;7379422;19;20018;-83
2022/06/22 15:18:34;;;;;;;7.90;3.97;;;30.90;46.30;;;;;;7377462;19;20336;-85
2022/06/22 15:21:07;;;;;;;9.55;3.90;;;30.90;46.50;;;;;;7371006;19;20090;-84
2022/06/22 15:23:43;;;;;;;8.77;4.32;;;31.00;46.40;;;;;;7378570;19;20566;-83
2022/06/22 15:26:20;;;;;;;7.55;4.45;;;31.10;46.10;;;;;;7378087;19;20010;-88
2022/06/22 15:28:55;;;;;;;8.95;5.03;;;31.10;46.70;;;;;;7380619;19;20439;-82
2022/06/22 15:31:34;;;;;;;7.65;5.32;;;31.40;46.40;;;;;;7385150;19;20010;-87
2022/06/22 15:34:37;;;;;;;9.52;4.80;;;31.80;45.40;;;;;;7404910;19;20019;-89
2022/06/22 15:37:41;;;;;;;10.35;4.63;;;32.30;44.90;;;;;;7378759;19;20096;-87
2022/06/22 15:40:41;;;;;;;13.60;4.40;;;32.50;44.20;;;;;;7379195;19;20018;-86
2022/06/22 15:43:29;;;;;;;10.68;4.60;;;32.40;43.70;;;;;;7380626;19;20015;-87
2022/06/22 15:46:07;;;;;;;5.72;3.65;;;32.30;43.60;;;;;;7379329;19;20366;-86
2022/06/22 15:48:44;;;;;;;6.93;3.58;;;32.80;43.30;;;;;;7377358;19;20376;-87
2022/06/22 15:51:25;;;;;;;6.78;3.35;;;33.80;42.20;;;;;;7379498;19;20015;-87
2022/06/22 15:53:56;;;;;;;;;;;34.70;40.20;;;;;;7376217;19;20027;-86
2022/06/22 15:56:53;;;;;;;10.13;3.95;;;35.40;39.20;;;;;;7380448;19;19919;-87
2022/06/22 15:59:38;;;;;;;6.32;3.55;;;36.00;38.80;;;;;;7380517;19;20015;-85
2022/06/22 16:02:27;;;;;;;62.88;56.58;;;36.40;37.40;;;;;;7386758;19;20006;-89
2022/06/22 16:05:02;;;;;;;6.22;3.20;;;36.80;37.10;;;;;;7373245;19;20546;-80
2022/06/22 16:07:37;;;;;;;4.88;3.17;;;37.00;36.70;;;;;;7370952;19;20016;-80
2022/06/22 16:10:12;;;;;;;7.70;3.53;;;37.10;36.00;;;;;;7394689;19;20284;-81
2022/06/22 16:15:37;;;;;;;6.63;2.80;;;36.20;36.30;;;;;;7376483;19;20014;-80
2022/06/22 16:18:11;;;;;;;7.22;2.80;;;35.40;37.20;;;;;;7375033;19;20021;-80
2022/06/22 16:20:44;;;;;;;6.25;3.10;;;34.80;38.30;;;;;;7376657;19;20015;-80
2022/06/22 16:23:18;;;;;;;8.52;2.90;;;35.00;38.60;;;;;;7376436;19;20022;-80
2022/06/22 16:25:52;;;;;;;5.63;2.70;;;35.80;37.40;;;;;;7374927;19;20014;-79
2022/06/22 16:28:42;;;;;;;7.07;2.95;;;36.70;36.40;;;;;;7393011;19;20492;-80
2022/06/22 16:31:15;;;;;;;5.65;3.00;;;37.40;35.10;;;;;;7374881;19;20569;-79
2022/06/22 16:33:55;;;;;;;8.02;3.17;;;38.00;34.40;;;;;;7374004;19;20074;-79
2022/06/22 16:36:40;;;;;;;4.13;2.40;;;38.50;34.70;;;;;;7374073;19;20071;-79
2022/06/22 16:39:15;;;;;;;6.70;3.28;;;39.00;32.80;;;;;;7374448;19;20042;-79
2022/06/22 16:41:57;;;;;;;5.10;2.78;;;39.20;32.60;;;;;;7373541;19;20018;-79
2022/06/22 16:44:34;;;;;;;6.07;2.83;;;38.50;32.90;;;;;;7373229;19;20553;-80
2022/06/22 16:47:06;;;;;;;5.85;2.92;;;37.60;33.80;;;;;;7373386;19;20447;-81
2022/06/22 16:49:42;;;;;;;4.53;2.63;;;36.70;35.00;;;;;;7373158;19;20010;-81